Latimer, Iowa
Current Conditions -  °F | °C
As of 9:15 AM on Wednesday 22 Oct 2014 (Local Time) from KCAV Reporting Station
Broken Clouds Broken Clouds  
Wind Chill: 38°   Ceiling: 4700
Heat Index: 45°   Visibility: 10mi
Dew Point: 41°   Wind: 14mph
Humidity: 87%   Direction: 150°SSE
Pressure: 30.2"   Gusts: NA
Location:  42.76°N, 93.37°W
Report Text: KCAV 221415Z AUTO 15012KT 10SM BKN047 BKN050 BKN060 07/05 A3020 RMK AO2
Loading
Personal Weather Stations






























Interactive Weather Map
Tropical Storm Tracking
New forecast layout! Learn more

10-Day Weather Forecast

Advertisements
Track Severe Weather on mobile